sensor_id;sensor_type;location;lat;lon;timestamp;temperature;humidity
51091;DHT22;37136;43.614;3.908;2022-08-24T00:01:24;24.60;99.90
51091;DHT22;37136;43.614;3.908;2022-08-24T00:03:50;24.40;99.90
51091;DHT22;37136;43.614;3.908;2022-08-24T00:06:18;24.50;99.90
51091;DHT22;37136;43.614;3.908;2022-08-24T00:08:45;24.30;99.90
51091;DHT22;37136;43.614;3.908;2022-08-24T00:11:11;24.20;99.90
51091;DHT22;37136;43.614;3.908;2022-08-24T00:13:38;24.30;99.90
51091;DHT22;37136;43.614;3.908;2022-08-24T00:16:05;24.30;99.90
51091;DHT22;37136;43.614;3.908;2022-08-24T00:18:32;24.40;99.90
51091;DHT22;37136;43.614;3.908;2022-08-24T00:20:59;24.20;99.90
51091;DHT22;37136;43.614;3.908;2022-08-24T00:23:26;24.00;99.90
51091;DHT22;37136;43.614;3.908;2022-08-24T00:25:52;23.90;99.90
51091;DHT22;37136;43.614;3.908;2022-08-24T00:28:18;23.80;99.90
51091;DHT22;37136;43.614;3.908;2022-08-24T00:30:44;23.80;99.90
51091;DHT22;37136;43.614;3.908;2022-08-24T00:33:10;23.80;99.90
51091;DHT22;37136;43.614;3.908;2022-08-24T00:35:36;23.80;99.90
51091;DHT22;37136;43.614;3.908;2022-08-24T00:38:01;23.80;99.90
51091;DHT22;37136;43.614;3.908;2022-08-24T00:40:34;23.80;99.90
51091;DHT22;37136;43.614;3.908;2022-08-24T00:43:01;23.80;99.90
51091;DHT22;37136;43.614;3.908;2022-08-24T00:48:26;23.70;99.90
51091;DHT22;37136;43.614;3.908;2022-08-24T00:51:00;23.70;99.90
51091;DHT22;37136;43.614;3.908;2022-08-24T00:53:31;23.80;99.90
51091;DHT22;37136;43.614;3.908;2022-08-24T00:56:03;23.80;99.90
51091;DHT22;37136;43.614;3.908;2022-08-24T00:58:39;23.80;99.90
51091;DHT22;37136;43.614;3.908;2022-08-24T01:01:08;23.80;99.90
51091;DHT22;37136;43.614;3.908;2022-08-24T01:03:36;23.80;99.90
51091;DHT22;37136;43.614;3.908;2022-08-24T01:06:03;23.80;99.90
51091;DHT22;37136;43.614;3.908;2022-08-24T01:08:29;23.90;99.90
51091;DHT22;37136;43.614;3.908;2022-08-24T01:10:59;23.80;99.90
51091;DHT22;37136;43.614;3.908;2022-08-24T01:13:25;23.70;99.90
51091;DHT22;37136;43.614;3.908;2022-08-24T01:15:54;23.80;99.90
51091;DHT22;37136;43.614;3.908;2022-08-24T01:18:24;23.70;99.90
51091;DHT22;37136;43.614;3.908;2022-08-24T01:23:43;23.70;99.90
51091;DHT22;37136;43.614;3.908;2022-08-24T01:26:22;23.70;99.90
51091;DHT22;37136;43.614;3.908;2022-08-24T01:28:54;23.80;99.90
51091;DHT22;37136;43.614;3.908;2022-08-24T01:31:22;23.60;99.90
51091;DHT22;37136;43.614;3.908;2022-08-24T01:33:50;23.40;99.90
51091;DHT22;37136;43.614;3.908;2022-08-24T01:39:14;23.30;99.90
51091;DHT22;37136;43.614;3.908;2022-08-24T01:41:40;23.20;99.90
51091;DHT22;37136;43.614;3.908;2022-08-24T01:44:07;23.30;99.90
51091;DHT22;37136;43.614;3.908;2022-08-24T01:46:33;23.40;99.90
51091;DHT22;37136;43.614;3.908;2022-08-24T01:48:59;23.40;99.90
51091;DHT22;37136;43.614;3.908;2022-08-24T01:51:30;23.40;99.90
51091;DHT22;37136;43.614;3.908;2022-08-24T01:53:58;23.20;99.90
51091;DHT22;37136;43.614;3.908;2022-08-24T01:56:28;23.30;99.90
51091;DHT22;37136;43.614;3.908;2022-08-24T01:58:53;23.30;99.90
51091;DHT22;37136;43.614;3.908;2022-08-24T02:01:20;23.20;99.90
51091;DHT22;37136;43.614;3.908;2022-08-24T02:03:45;23.10;99.90
51091;DHT22;37136;43.614;3.908;2022-08-24T02:06:11;23.10;99.90
51091;DHT22;37136;43.614;3.908;2022-08-24T02:08:37;23.20;99.90
51091;DHT22;37136;43.614;3.908;2022-08-24T02:11:07;23.10;99.90
51091;DHT22;37136;43.614;3.908;2022-08-24T02:13:34;23.20;99.90
51091;DHT22;37136;43.614;3.908;2022-08-24T02:16:00;23.20;99.90
51091;DHT22;37136;43.614;3.908;2022-08-24T02:18:26;23.20;99.90
51091;DHT22;37136;43.614;3.908;2022-08-24T02:20:52;23.40;99.90
51091;DHT22;37136;43.614;3.908;2022-08-24T02:23:18;23.40;99.90
51091;DHT22;37136;43.614;3.908;2022-08-24T02:25:45;23.40;99.90
51091;DHT22;37136;43.614;3.908;2022-08-24T02:28:11;23.40;99.90
51091;DHT22;37136;43.614;3.908;2022-08-24T02:30:37;23.50;99.90
51091;DHT22;37136;43.614;3.908;2022-08-24T02:33:05;23.40;99.90
51091;DHT22;37136;43.614;3.908;2022-08-24T02:35:33;23.20;99.90
51091;DHT22;37136;43.614;3.908;2022-08-24T02:37:59;23.30;99.90
51091;DHT22;37136;43.614;3.908;2022-08-24T02:40:25;23.20;99.90
51091;DHT22;37136;43.614;3.908;2022-08-24T02:42:51;23.20;99.90
51091;DHT22;37136;43.614;3.908;2022-08-24T02:45:18;23.30;99.90
51091;DHT22;37136;43.614;3.908;2022-08-24T02:47:44;23.30;99.90
51091;DHT22;37136;43.614;3.908;2022-08-24T02:50:12;23.30;99.90
51091;DHT22;37136;43.614;3.908;2022-08-24T02:52:40;23.30;99.90
51091;DHT22;37136;43.614;3.908;2022-08-24T02:55:10;23.20;99.90
51091;DHT22;37136;43.614;3.908;2022-08-24T02:57:36;23.30;99.90
51091;DHT22;37136;43.614;3.908;2022-08-24T03:00:05;23.30;99.90
51091;DHT22;37136;43.614;3.908;2022-08-24T03:02:32;23.20;99.90
51091;DHT22;37136;43.614;3.908;2022-08-24T03:04:58;23.20;99.90
51091;DHT22;37136;43.614;3.908;2022-08-24T03:07:24;23.10;99.90
51091;DHT22;37136;43.614;3.908;2022-08-24T03:09:49;23.00;99.90
51091;DHT22;37136;43.614;3.908;2022-08-24T03:12:15;22.90;99.90
51091;DHT22;37136;43.614;3.908;2022-08-24T03:14:42;22.90;99.90
51091;DHT22;37136;43.614;3.908;2022-08-24T03:17:08;23.00;99.90
51091;DHT22;37136;43.614;3.908;2022-08-24T03:19:34;22.90;99.90
51091;DHT22;37136;43.614;3.908;2022-08-24T03:22:00;22.80;99.90
51091;DHT22;37136;43.614;3.908;2022-08-24T03:24:26;22.90;99.90
51091;DHT22;37136;43.614;3.908;2022-08-24T03:26:52;22.90;99.90
51091;DHT22;37136;43.614;3.908;2022-08-24T03:29:17;22.90;99.90
51091;DHT22;37136;43.614;3.908;2022-08-24T03:31:43;23.00;99.90
51091;DHT22;37136;43.614;3.908;2022-08-24T03:34:09;22.90;99.90
51091;DHT22;37136;43.614;3.908;2022-08-24T03:36:39;23.00;99.90
51091;DHT22;37136;43.614;3.908;2022-08-24T03:39:06;23.00;99.90
51091;DHT22;37136;43.614;3.908;2022-08-24T03:41:32;23.00;99.90
51091;DHT22;37136;43.614;3.908;2022-08-24T03:43:57;23.00;99.90
51091;DHT22;37136;43.614;3.908;2022-08-24T03:46:26;22.90;99.90
51091;DHT22;37136;43.614;3.908;2022-08-24T03:48:57;22.80;99.90
51091;DHT22;37136;43.614;3.908;2022-08-24T03:51:25;22.90;99.90
51091;DHT22;37136;43.614;3.908;2022-08-24T03:53:52;22.90;99.90
51091;DHT22;37136;43.614;3.908;2022-08-24T03:56:18;22.80;99.90
51091;DHT22;37136;43.614;3.908;2022-08-24T03:58:44;22.80;99.90
51091;DHT22;37136;43.614;3.908;2022-08-24T04:01:11;22.70;99.90
51091;DHT22;37136;43.614;3.908;2022-08-24T04:03:38;22.70;99.90
51091;DHT22;37136;43.614;3.908;2022-08-24T04:06:05;22.80;99.90
51091;DHT22;37136;43.614;3.908;2022-08-24T04:08:32;22.80;99.90
51091;DHT22;37136;43.614;3.908;2022-08-24T04:10:59;22.90;99.90
51091;DHT22;37136;43.614;3.908;2022-08-24T04:13:25;22.70;99.90
51091;DHT22;37136;43.614;3.908;2022-08-24T04:15:51;22.60;99.90
51091;DHT22;37136;43.614;3.908;2022-08-24T04:18:18;22.60;99.90
51091;DHT22;37136;43.614;3.908;2022-08-24T04:20:45;22.70;99.90
51091;DHT22;37136;43.614;3.908;2022-08-24T04:23:11;22.70;99.90
51091;DHT22;37136;43.614;3.908;2022-08-24T04:25:43;22.60;99.90
51091;DHT22;37136;43.614;3.908;2022-08-24T04:28:10;22.60;99.90
51091;DHT22;37136;43.614;3.908;2022-08-24T04:30:41;22.70;99.90
51091;DHT22;37136;43.614;3.908;2022-08-24T04:33:12;22.80;99.90
51091;DHT22;37136;43.614;3.908;2022-08-24T04:35:39;22.80;99.90
51091;DHT22;37136;43.614;3.908;2022-08-24T04:38:06;22.70;99.90
51091;DHT22;37136;43.614;3.908;2022-08-24T04:40:33;22.70;99.90
51091;DHT22;37136;43.614;3.908;2022-08-24T04:42:59;22.80;99.90
51091;DHT22;37136;43.614;3.908;2022-08-24T04:45:27;22.70;99.90
51091;DHT22;37136;43.614;3.908;2022-08-24T04:47:53;22.60;99.90
51091;DHT22;37136;43.614;3.908;2022-08-24T04:50:19;22.70;99.90
51091;DHT22;37136;43.614;3.908;2022-08-24T04:52:44;22.60;99.90
51091;DHT22;37136;43.614;3.908;2022-08-24T04:55:10;22.50;99.90
51091;DHT22;37136;43.614;3.908;2022-08-24T04:57:37;22.50;99.90
51091;DHT22;37136;43.614;3.908;2022-08-24T05:00:04;22.50;99.90
51091;DHT22;37136;43.614;3.908;2022-08-24T05:02:30;22.50;99.90
51091;DHT22;37136;43.614;3.908;2022-08-24T05:04:57;22.60;99.90
51091;DHT22;37136;43.614;3.908;2022-08-24T05:07:23;22.60;99.90
51091;DHT22;37136;43.614;3.908;2022-08-24T05:09:50;22.70;99.90
51091;DHT22;37136;43.614;3.908;2022-08-24T05:12:16;22.50;99.90
51091;DHT22;37136;43.614;3.908;2022-08-24T05:14:41;22.50;99.90
51091;DHT22;37136;43.614;3.908;2022-08-24T05:17:07;22.60;99.90
51091;DHT22;37136;43.614;3.908;2022-08-24T05:19:33;22.60;99.90
51091;DHT22;37136;43.614;3.908;2022-08-24T05:21:58;22.50;99.90
51091;DHT22;37136;43.614;3.908;2022-08-24T05:24:25;22.40;1.00
51091;DHT22;37136;43.614;3.908;2022-08-24T05:26:50;22.20;1.00
51091;DHT22;37136;43.614;3.908;2022-08-24T05:29:17;22.30;1.00
51091;DHT22;37136;43.614;3.908;2022-08-24T05:31:44;22.30;1.00
51091;DHT22;37136;43.614;3.908;2022-08-24T05:34:11;22.50;1.00
51091;DHT22;37136;43.614;3.908;2022-08-24T05:36:38;22.60;1.00
51091;DHT22;37136;43.614;3.908;2022-08-24T05:39:08;22.60;1.00
51091;DHT22;37136;43.614;3.908;2022-08-24T05:41:34;22.80;1.00
51091;DHT22;37136;43.614;3.908;2022-08-24T05:44:00;22.80;1.00
51091;DHT22;37136;43.614;3.908;2022-08-24T05:46:27;22.90;1.00
51091;DHT22;37136;43.614;3.908;2022-08-24T05:48:53;22.90;1.00
51091;DHT22;37136;43.614;3.908;2022-08-24T05:51:20;22.80;1.00
51091;DHT22;37136;43.614;3.908;2022-08-24T05:53:46;22.80;1.00
51091;DHT22;37136;43.614;3.908;2022-08-24T05:56:13;22.80;1.00
51091;DHT22;37136;43.614;3.908;2022-08-24T05:58:39;22.90;1.00
51091;DHT22;37136;43.614;3.908;2022-08-24T06:01:07;23.00;1.00
51091;DHT22;37136;43.614;3.908;2022-08-24T06:03:35;23.00;1.00
51091;DHT22;37136;43.614;3.908;2022-08-24T06:06:02;23.10;1.00
51091;DHT22;37136;43.614;3.908;2022-08-24T06:08:28;23.10;99.90
51091;DHT22;37136;43.614;3.908;2022-08-24T06:10:56;23.30;99.90
51091;DHT22;37136;43.614;3.908;2022-08-24T06:13:21;23.30;99.90
51091;DHT22;37136;43.614;3.908;2022-08-24T06:15:47;23.40;99.90
51091;DHT22;37136;43.614;3.908;2022-08-24T06:18:13;23.50;99.90
51091;DHT22;37136;43.614;3.908;2022-08-24T06:20:41;23.60;99.90
51091;DHT22;37136;43.614;3.908;2022-08-24T06:23:08;23.70;99.90
51091;DHT22;37136;43.614;3.908;2022-08-24T06:25:38;23.80;99.90
51091;DHT22;37136;43.614;3.908;2022-08-24T06:28:22;23.90;99.90
51091;DHT22;37136;43.614;3.908;2022-08-24T06:30:48;24.00;99.90
51091;DHT22;37136;43.614;3.908;2022-08-24T06:33:13;24.00;99.90
51091;DHT22;37136;43.614;3.908;2022-08-24T06:35:39;24.00;99.90
51091;DHT22;37136;43.614;3.908;2022-08-24T06:38:05;23.90;99.90
51091;DHT22;37136;43.614;3.908;2022-08-24T06:40:31;24.00;99.90
51091;DHT22;37136;43.614;3.908;2022-08-24T06:43:00;23.90;99.90
51091;DHT22;37136;43.614;3.908;2022-08-24T06:45:26;24.00;99.90
51091;DHT22;37136;43.614;3.908;2022-08-24T06:47:54;24.10;99.90
51091;DHT22;37136;43.614;3.908;2022-08-24T06:50:20;24.20;99.90
51091;DHT22;37136;43.614;3.908;2022-08-24T06:52:46;24.40;99.90
51091;DHT22;37136;43.614;3.908;2022-08-24T06:55:11;24.60;99.90
51091;DHT22;37136;43.614;3.908;2022-08-24T06:57:37;24.80;99.90
51091;DHT22;37136;43.614;3.908;2022-08-24T07:00:04;24.90;99.90
51091;DHT22;37136;43.614;3.908;2022-08-24T07:02:31;25.00;99.90
51091;DHT22;37136;43.614;3.908;2022-08-24T07:04:56;25.10;99.90
51091;DHT22;37136;43.614;3.908;2022-08-24T07:07:22;25.00;99.90
51091;DHT22;37136;43.614;3.908;2022-08-24T07:09:48;25.20;99.90
51091;DHT22;37136;43.614;3.908;2022-08-24T07:12:14;25.30;99.90
51091;DHT22;37136;43.614;3.908;2022-08-24T07:14:39;25.50;99.90
51091;DHT22;37136;43.614;3.908;2022-08-24T07:17:05;25.60;99.90
51091;DHT22;37136;43.614;3.908;2022-08-24T07:19:31;25.80;99.90
51091;DHT22;37136;43.614;3.908;2022-08-24T07:21:57;25.90;99.90
51091;DHT22;37136;43.614;3.908;2022-08-24T07:24:23;25.90;99.90
51091;DHT22;37136;43.614;3.908;2022-08-24T07:26:49;26.00;99.90
51091;DHT22;37136;43.614;3.908;2022-08-24T07:29:15;26.10;99.90
51091;DHT22;37136;43.614;3.908;2022-08-24T07:31:42;26.10;99.90
51091;DHT22;37136;43.614;3.908;2022-08-24T07:34:09;26.20;99.90
51091;DHT22;37136;43.614;3.908;2022-08-24T07:36:37;26.40;99.90
51091;DHT22;37136;43.614;3.908;2022-08-24T07:39:03;26.40;99.90
51091;DHT22;37136;43.614;3.908;2022-08-24T07:41:30;26.50;99.90
51091;DHT22;37136;43.614;3.908;2022-08-24T07:43:56;26.60;99.90
51091;DHT22;37136;43.614;3.908;2022-08-24T07:46:22;26.70;99.90
51091;DHT22;37136;43.614;3.908;2022-08-24T07:48:49;26.90;99.90
51091;DHT22;37136;43.614;3.908;2022-08-24T07:51:17;26.90;99.90
51091;DHT22;37136;43.614;3.908;2022-08-24T07:53:44;27.00;99.90
51091;DHT22;37136;43.614;3.908;2022-08-24T07:56:10;27.10;99.90
51091;DHT22;37136;43.614;3.908;2022-08-24T07:58:36;27.20;99.90
51091;DHT22;37136;43.614;3.908;2022-08-24T08:01:03;27.10;99.90
51091;DHT22;37136;43.614;3.908;2022-08-24T08:03:30;27.20;99.90
51091;DHT22;37136;43.614;3.908;2022-08-24T08:06:00;27.30;99.90
51091;DHT22;37136;43.614;3.908;2022-08-24T08:08:27;27.40;99.90
51091;DHT22;37136;43.614;3.908;2022-08-24T08:10:53;27.50;99.90
51091;DHT22;37136;43.614;3.908;2022-08-24T08:13:19;27.60;99.90
51091;DHT22;37136;43.614;3.908;2022-08-24T08:15:45;27.60;99.90
51091;DHT22;37136;43.614;3.908;2022-08-24T08:18:11;27.80;99.90
51091;DHT22;37136;43.614;3.908;2022-08-24T08:20:39;28.00;99.90
51091;DHT22;37136;43.614;3.908;2022-08-24T08:23:06;28.00;99.90
51091;DHT22;37136;43.614;3.908;2022-08-24T08:25:52;28.10;99.90
51091;DHT22;37136;43.614;3.908;2022-08-24T08:28:19;28.20;99.90
51091;DHT22;37136;43.614;3.908;2022-08-24T08:30:46;28.20;99.90
51091;DHT22;37136;43.614;3.908;2022-08-24T08:33:12;28.30;99.90
51091;DHT22;37136;43.614;3.908;2022-08-24T08:35:39;28.20;99.90
51091;DHT22;37136;43.614;3.908;2022-08-24T08:38:06;28.20;99.90
51091;DHT22;37136;43.614;3.908;2022-08-24T08:41:02;28.30;99.90
51091;DHT22;37136;43.614;3.908;2022-08-24T08:43:45;28.30;99.90
51091;DHT22;37136;43.614;3.908;2022-08-24T08:52:18;28.40;99.90
51091;DHT22;37136;43.614;3.908;2022-08-24T09:00:21;28.60;99.90
51091;DHT22;37136;43.614;3.908;2022-08-24T09:30:24;29.00;99.90
51091;DHT22;37136;43.614;3.908;2022-08-24T09:33:03;29.20;99.90
51091;DHT22;37136;43.614;3.908;2022-08-24T09:58:39;30.20;99.90
51091;DHT22;37136;43.614;3.908;2022-08-24T10:06:53;30.10;99.90
51091;DHT22;37136;43.614;3.908;2022-08-24T10:09:47;29.90;99.90
51091;DHT22;37136;43.614;3.908;2022-08-24T10:12:37;29.80;99.90
51091;DHT22;37136;43.614;3.908;2022-08-24T10:17:45;30.70;99.90
51091;DHT22;37136;43.614;3.908;2022-08-24T10:20:40;30.80;99.90
51091;DHT22;37136;43.614;3.908;2022-08-24T10:37:18;30.50;99.90
51091;DHT22;37136;43.614;3.908;2022-08-24T10:43:06;30.80;99.90
51091;DHT22;37136;43.614;3.908;2022-08-24T10:54:46;30.70;99.90
51091;DHT22;37136;43.614;3.908;2022-08-24T10:57:41;30.90;99.90
51091;DHT22;37136;43.614;3.908;2022-08-24T11:00:14;30.80;99.90
51091;DHT22;37136;43.614;3.908;2022-08-24T11:02:45;30.90;99.90
51091;DHT22;37136;43.614;3.908;2022-08-24T11:05:27;31.10;99.90
51091;DHT22;37136;43.614;3.908;2022-08-24T11:08:02;30.80;99.90
51091;DHT22;37136;43.614;3.908;2022-08-24T11:10:32;30.80;99.90
51091;DHT22;37136;43.614;3.908;2022-08-24T11:15:57;31.10;99.90
51091;DHT22;37136;43.614;3.908;2022-08-24T11:18:24;31.30;99.90
51091;DHT22;37136;43.614;3.908;2022-08-24T11:20:53;31.50;99.90
51091;DHT22;37136;43.614;3.908;2022-08-24T11:23:25;31.30;99.90
51091;DHT22;37136;43.614;3.908;2022-08-24T11:26:18;31.70;99.90
51091;DHT22;37136;43.614;3.908;2022-08-24T11:28:49;32.10;99.90
51091;DHT22;37136;43.614;3.908;2022-08-24T11:34:02;31.80;99.90
51091;DHT22;37136;43.614;3.908;2022-08-24T11:36:32;31.70;99.90
51091;DHT22;37136;43.614;3.908;2022-08-24T11:48:00;31.70;99.90
51091;DHT22;37136;43.614;3.908;2022-08-24T11:50:28;32.10;99.90
51091;DHT22;37136;43.614;3.908;2022-08-24T12:13:21;32.30;99.90
51091;DHT22;37136;43.614;3.908;2022-08-24T12:16:09;32.40;99.90
51091;DHT22;37136;43.614;3.908;2022-08-24T12:21:25;32.60;99.90
51091;DHT22;37136;43.614;3.908;2022-08-24T12:23:59;32.60;99.90
51091;DHT22;37136;43.614;3.908;2022-08-24T12:26:34;32.60;99.90
51091;DHT22;37136;43.614;3.908;2022-08-24T12:32:17;32.60;99.90
51091;DHT22;37136;43.614;3.908;2022-08-24T12:37:26;32.20;99.90
51091;DHT22;37136;43.614;3.908;2022-08-24T12:39:58;32.40;99.90
51091;DHT22;37136;43.614;3.908;2022-08-24T12:45:08;32.60;99.90
51091;DHT22;37136;43.614;3.908;2022-08-24T12:53:05;32.40;99.90
51091;DHT22;37136;43.614;3.908;2022-08-24T13:01:22;32.10;99.90
51091;DHT22;37136;43.614;3.908;2022-08-24T13:04:15;32.20;99.90
51091;DHT22;37136;43.614;3.908;2022-08-24T13:06:57;32.10;99.90
51091;DHT22;37136;43.614;3.908;2022-08-24T13:36:39;32.40;99.90
51091;DHT22;37136;43.614;3.908;2022-08-24T13:45:04;32.30;99.90
51091;DHT22;37136;43.614;3.908;2022-08-24T13:53:34;32.10;99.90
51091;DHT22;37136;43.614;3.908;2022-08-24T13:58:51;31.90;99.90
51091;DHT22;37136;43.614;3.908;2022-08-24T14:18:21;31.60;99.90
51091;DHT22;37136;43.614;3.908;2022-08-24T14:21:07;31.50;99.90
51091;DHT22;37136;43.614;3.908;2022-08-24T14:34:34;31.50;99.90
51091;DHT22;37136;43.614;3.908;2022-08-24T14:39:54;31.60;99.90
51091;DHT22;37136;43.614;3.908;2022-08-24T14:48:00;31.40;99.90
51091;DHT22;37136;43.614;3.908;2022-08-24T14:50:47;31.30;99.90
51091;DHT22;37136;43.614;3.908;2022-08-24T15:01:34;31.20;99.90
51091;DHT22;37136;43.614;3.908;2022-08-24T15:09:41;31.20;99.90
51091;DHT22;37136;43.614;3.908;2022-08-24T15:29:16;38.90;99.90
51091;DHT22;37136;43.614;3.908;2022-08-24T15:31:58;40.30;99.90
51091;DHT22;37136;43.614;3.908;2022-08-24T15:34:52;41.40;99.90
51091;DHT22;37136;43.614;3.908;2022-08-24T15:39:55;41.60;99.90
51091;DHT22;37136;43.614;3.908;2022-08-24T15:42:21;41.10;99.90
51091;DHT22;37136;43.614;3.908;2022-08-24T15:44:49;40.50;99.90
51091;DHT22;37136;43.614;3.908;2022-08-24T15:49:56;40.70;99.90
51091;DHT22;37136;43.614;3.908;2022-08-24T15:52:39;40.50;99.90
51091;DHT22;37136;43.614;3.908;2022-08-24T15:55:13;41.30;99.90
51091;DHT22;37136;43.614;3.908;2022-08-24T15:57:42;40.00;99.90
51091;DHT22;37136;43.614;3.908;2022-08-24T16:00:14;41.20;99.90
51091;DHT22;37136;43.614;3.908;2022-08-24T16:02:40;42.90;99.90
51091;DHT22;37136;43.614;3.908;2022-08-24T16:05:35;43.80;99.90
51091;DHT22;37136;43.614;3.908;2022-08-24T16:10:52;43.90;99.90
51091;DHT22;37136;43.614;3.908;2022-08-24T16:13:29;43.50;99.90
51091;DHT22;37136;43.614;3.908;2022-08-24T16:16:04;42.10;99.90
51091;DHT22;37136;43.614;3.908;2022-08-24T16:18:44;41.40;99.90
51091;DHT22;37136;43.614;3.908;2022-08-24T16:21:15;40.70;99.90
51091;DHT22;37136;43.614;3.908;2022-08-24T16:23:44;41.20;99.90
51091;DHT22;37136;43.614;3.908;2022-08-24T16:26:26;41.70;99.90
51091;DHT22;37136;43.614;3.908;2022-08-24T16:28:55;42.70;99.90
51091;DHT22;37136;43.614;3.908;2022-08-24T16:34:31;43.30;99.90
51091;DHT22;37136;43.614;3.908;2022-08-24T16:36:57;41.70;99.90
51091;DHT22;37136;43.614;3.908;2022-08-24T16:39:24;39.70;99.90
51091;DHT22;37136;43.614;3.908;2022-08-24T16:41:56;36.10;99.90
51091;DHT22;37136;43.614;3.908;2022-08-24T16:44:25;34.40;99.90
51091;DHT22;37136;43.614;3.908;2022-08-24T16:46:51;33.20;99.90
51091;DHT22;37136;43.614;3.908;2022-08-24T16:49:16;32.60;99.90
51091;DHT22;37136;43.614;3.908;2022-08-24T16:51:42;32.00;99.90
51091;DHT22;37136;43.614;3.908;2022-08-24T16:54:08;31.60;99.90
51091;DHT22;37136;43.614;3.908;2022-08-24T16:56:34;31.10;99.90
51091;DHT22;37136;43.614;3.908;2022-08-24T16:59:00;30.90;99.90
51091;DHT22;37136;43.614;3.908;2022-08-24T17:01:26;30.90;99.90
51091;DHT22;37136;43.614;3.908;2022-08-24T17:03:52;30.70;99.90
51091;DHT22;37136;43.614;3.908;2022-08-24T17:06:18;30.30;99.90
51091;DHT22;37136;43.614;3.908;2022-08-24T17:08:44;29.80;99.90
51091;DHT22;37136;43.614;3.908;2022-08-24T17:11:12;29.50;99.90
51091;DHT22;37136;43.614;3.908;2022-08-24T17:13:39;29.40;99.90
51091;DHT22;37136;43.614;3.908;2022-08-24T17:16:05;29.30;99.90
51091;DHT22;37136;43.614;3.908;2022-08-24T17:18:31;29.30;99.90
51091;DHT22;37136;43.614;3.908;2022-08-24T17:20:57;29.10;99.90
51091;DHT22;37136;43.614;3.908;2022-08-24T17:23:25;28.90;99.90
51091;DHT22;37136;43.614;3.908;2022-08-24T17:25:51;28.80;99.90
51091;DHT22;37136;43.614;3.908;2022-08-24T17:28:17;28.70;99.90
51091;DHT22;37136;43.614;3.908;2022-08-24T17:30:44;28.60;99.90
51091;DHT22;37136;43.614;3.908;2022-08-24T17:33:10;28.50;99.90
51091;DHT22;37136;43.614;3.908;2022-08-24T17:35:39;28.30;99.90
51091;DHT22;37136;43.614;3.908;2022-08-24T17:38:05;28.40;99.90
51091;DHT22;37136;43.614;3.908;2022-08-24T17:40:31;28.30;99.90
51091;DHT22;37136;43.614;3.908;2022-08-24T17:42:58;28.30;99.90
51091;DHT22;37136;43.614;3.908;2022-08-24T17:45:24;28.20;99.90
51091;DHT22;37136;43.614;3.908;2022-08-24T17:47:50;28.00;99.90
51091;DHT22;37136;43.614;3.908;2022-08-24T17:50:18;27.90;99.90
51091;DHT22;37136;43.614;3.908;2022-08-24T17:52:45;28.00;99.90
51091;DHT22;37136;43.614;3.908;2022-08-24T17:55:13;27.70;99.90
51091;DHT22;37136;43.614;3.908;2022-08-24T17:57:39;27.60;99.90
51091;DHT22;37136;43.614;3.908;2022-08-24T18:00:08;27.70;99.90
51091;DHT22;37136;43.614;3.908;2022-08-24T18:02:34;27.60;99.90
51091;DHT22;37136;43.614;3.908;2022-08-24T18:05:00;27.60;99.90
51091;DHT22;37136;43.614;3.908;2022-08-24T18:07:26;27.60;99.90
51091;DHT22;37136;43.614;3.908;2022-08-24T18:09:56;27.50;99.90
51091;DHT22;37136;43.614;3.908;2022-08-24T18:12:25;27.50;99.90
51091;DHT22;37136;43.614;3.908;2022-08-24T18:14:51;27.50;99.90
51091;DHT22;37136;43.614;3.908;2022-08-24T18:17:20;27.50;99.90
51091;DHT22;37136;43.614;3.908;2022-08-24T18:19:47;27.30;99.90
51091;DHT22;37136;43.614;3.908;2022-08-24T18:22:14;27.30;99.90
51091;DHT22;37136;43.614;3.908;2022-08-24T18:24:41;27.20;99.90
51091;DHT22;37136;43.614;3.908;2022-08-24T18:27:10;27.00;99.90
51091;DHT22;37136;43.614;3.908;2022-08-24T18:29:40;27.10;99.90
51091;DHT22;37136;43.614;3.908;2022-08-24T18:32:07;27.10;99.90
51091;DHT22;37136;43.614;3.908;2022-08-24T18:34:33;27.10;99.90
51091;DHT22;37136;43.614;3.908;2022-08-24T18:37:00;26.90;99.90
51091;DHT22;37136;43.614;3.908;2022-08-24T18:39:25;26.80;99.90
51091;DHT22;37136;43.614;3.908;2022-08-24T18:41:52;26.80;99.90
51091;DHT22;37136;43.614;3.908;2022-08-24T18:44:21;26.80;99.90
51091;DHT22;37136;43.614;3.908;2022-08-24T18:46:47;26.90;99.90
51091;DHT22;37136;43.614;3.908;2022-08-24T18:49:15;26.70;99.90
51091;DHT22;37136;43.614;3.908;2022-08-24T18:51:41;26.60;99.90
51091;DHT22;37136;43.614;3.908;2022-08-24T18:54:14;26.50;99.90
51091;DHT22;37136;43.614;3.908;2022-08-24T18:56:41;26.40;99.90
51091;DHT22;37136;43.614;3.908;2022-08-24T18:59:10;26.50;99.90
51091;DHT22;37136;43.614;3.908;2022-08-24T19:01:37;26.60;99.90
51091;DHT22;37136;43.614;3.908;2022-08-24T19:04:23;26.60;99.90
51091;DHT22;37136;43.614;3.908;2022-08-24T19:06:49;26.40;99.90
51091;DHT22;37136;43.614;3.908;2022-08-24T19:09:15;26.10;99.90
51091;DHT22;37136;43.614;3.908;2022-08-24T19:11:41;26.00;99.90
51091;DHT22;37136;43.614;3.908;2022-08-24T19:14:07;25.90;99.90
51091;DHT22;37136;43.614;3.908;2022-08-24T19:16:33;26.00;99.90
51091;DHT22;37136;43.614;3.908;2022-08-24T19:18:59;26.20;99.90
51091;DHT22;37136;43.614;3.908;2022-08-24T19:21:26;26.30;99.90
51091;DHT22;37136;43.614;3.908;2022-08-24T19:23:54;26.40;99.90
51091;DHT22;37136;43.614;3.908;2022-08-24T19:26:23;26.40;99.90
51091;DHT22;37136;43.614;3.908;2022-08-24T19:28:49;26.30;99.90
51091;DHT22;37136;43.614;3.908;2022-08-24T19:31:16;26.30;99.90
51091;DHT22;37136;43.614;3.908;2022-08-24T19:33:44;26.30;99.90
51091;DHT22;37136;43.614;3.908;2022-08-24T19:36:12;26.40;99.90
51091;DHT22;37136;43.614;3.908;2022-08-24T19:38:37;26.40;99.90
51091;DHT22;37136;43.614;3.908;2022-08-24T19:41:04;26.40;99.90
51091;DHT22;37136;43.614;3.908;2022-08-24T19:43:30;26.20;99.90
51091;DHT22;37136;43.614;3.908;2022-08-24T19:45:57;26.00;99.90
51091;DHT22;37136;43.614;3.908;2022-08-24T19:48:38;25.80;1.00
51091;DHT22;37136;43.614;3.908;2022-08-24T19:51:07;25.50;1.00
51091;DHT22;37136;43.614;3.908;2022-08-24T19:53:35;25.50;1.00
51091;DHT22;37136;43.614;3.908;2022-08-24T19:56:02;25.50;1.00
51091;DHT22;37136;43.614;3.908;2022-08-24T19:58:51;25.50;1.00
51091;DHT22;37136;43.614;3.908;2022-08-24T20:01:19;25.50;1.00
51091;DHT22;37136;43.614;3.908;2022-08-24T20:03:45;25.70;1.00
51091;DHT22;37136;43.614;3.908;2022-08-24T20:06:12;25.70;1.00
51091;DHT22;37136;43.614;3.908;2022-08-24T20:08:39;25.60;1.00
51091;DHT22;37136;43.614;3.908;2022-08-24T20:11:06;25.50;1.00
51091;DHT22;37136;43.614;3.908;2022-08-24T20:13:33;25.50;1.00
51091;DHT22;37136;43.614;3.908;2022-08-24T20:15:59;25.70;1.00
51091;DHT22;37136;43.614;3.908;2022-08-24T20:18:33;25.80;1.00
51091;DHT22;37136;43.614;3.908;2022-08-24T20:20:59;25.60;1.00
51091;DHT22;37136;43.614;3.908;2022-08-24T20:23:25;25.60;1.00
51091;DHT22;37136;43.614;3.908;2022-08-24T20:25:51;25.70;1.00